sensor_id;sensor_type;location;lat;lon;timestamp;temperature;humidity
3190;DHT22;1606;51.946;10.558;2023-07-22T00:00:46;18.40;99.90
3190;DHT22;1606;51.946;10.558;2023-07-22T00:03:14;18.30;99.90
3190;DHT22;1606;51.946;10.558;2023-07-22T00:05:42;18.40;99.90
3190;DHT22;1606;51.946;10.558;2023-07-22T00:08:10;18.40;99.90
3190;DHT22;1606;51.946;10.558;2023-07-22T00:10:40;18.30;99.90
3190;DHT22;1606;51.946;10.558;2023-07-22T00:13:10;18.10;99.90
3190;DHT22;1606;51.946;10.558;2023-07-22T00:15:38;18.20;99.90
3190;DHT22;1606;51.946;10.558;2023-07-22T00:18:06;18.00;99.90
3190;DHT22;1606;51.946;10.558;2023-07-22T00:20:34;18.00;99.90
3190;DHT22;1606;51.946;10.558;2023-07-22T00:23:01;18.10;99.90
3190;DHT22;1606;51.946;10.558;2023-07-22T00:25:29;18.00;99.90
3190;DHT22;1606;51.946;10.558;2023-07-22T00:27:57;18.10;99.90
3190;DHT22;1606;51.946;10.558;2023-07-22T00:30:26;18.00;99.90
3190;DHT22;1606;51.946;10.558;2023-07-22T00:32:55;18.00;99.90
3190;DHT22;1606;51.946;10.558;2023-07-22T00:35:23;18.10;99.90
3190;DHT22;1606;51.946;10.558;2023-07-22T00:37:51;18.10;99.90
3190;DHT22;1606;51.946;10.558;2023-07-22T00:40:19;18.10;99.90
3190;DHT22;1606;51.946;10.558;2023-07-22T00:42:46;18.10;99.90
3190;DHT22;1606;51.946;10.558;2023-07-22T00:45:14;17.90;99.90
3190;DHT22;1606;51.946;10.558;2023-07-22T00:47:44;17.70;99.90
3190;DHT22;1606;51.946;10.558;2023-07-22T00:50:12;17.70;99.90
3190;DHT22;1606;51.946;10.558;2023-07-22T00:52:40;17.70;99.90
3190;DHT22;1606;51.946;10.558;2023-07-22T00:55:09;17.40;99.90
3190;DHT22;1606;51.946;10.558;2023-07-22T00:57:37;17.10;99.90
3190;DHT22;1606;51.946;10.558;2023-07-22T01:00:06;17.10;99.90
3190;DHT22;1606;51.946;10.558;2023-07-22T01:02:38;17.10;99.90
3190;DHT22;1606;51.946;10.558;2023-07-22T01:05:09;17.00;99.90
3190;DHT22;1606;51.946;10.558;2023-07-22T01:07:37;17.10;99.90
3190;DHT22;1606;51.946;10.558;2023-07-22T01:10:07;17.20;99.90
3190;DHT22;1606;51.946;10.558;2023-07-22T01:12:36;17.30;99.90
3190;DHT22;1606;51.946;10.558;2023-07-22T01:15:05;17.40;99.90
3190;DHT22;1606;51.946;10.558;2023-07-22T01:17:37;17.40;99.90
3190;DHT22;1606;51.946;10.558;2023-07-22T01:20:06;17.40;99.90
3190;DHT22;1606;51.946;10.558;2023-07-22T01:22:38;17.50;99.90
3190;DHT22;1606;51.946;10.558;2023-07-22T01:25:08;17.50;99.90
3190;DHT22;1606;51.946;10.558;2023-07-22T01:27:36;17.40;99.90
3190;DHT22;1606;51.946;10.558;2023-07-22T01:30:05;17.40;99.90
3190;DHT22;1606;51.946;10.558;2023-07-22T01:32:36;17.30;99.90
3190;DHT22;1606;51.946;10.558;2023-07-22T01:35:06;17.40;99.90
3190;DHT22;1606;51.946;10.558;2023-07-22T01:37:34;17.20;99.90
3190;DHT22;1606;51.946;10.558;2023-07-22T01:40:03;17.30;99.90
3190;DHT22;1606;51.946;10.558;2023-07-22T01:42:40;17.20;99.90
3190;DHT22;1606;51.946;10.558;2023-07-22T01:45:08;17.20;99.90
3190;DHT22;1606;51.946;10.558;2023-07-22T01:47:38;17.20;99.90
3190;DHT22;1606;51.946;10.558;2023-07-22T01:50:07;17.20;99.90
3190;DHT22;1606;51.946;10.558;2023-07-22T01:52:35;17.20;99.90
3190;DHT22;1606;51.946;10.558;2023-07-22T01:55:04;17.20;99.90
3190;DHT22;1606;51.946;10.558;2023-07-22T01:57:32;17.10;99.90
3190;DHT22;1606;51.946;10.558;2023-07-22T02:00:03;17.10;99.90
3190;DHT22;1606;51.946;10.558;2023-07-22T02:02:32;17.10;99.90
3190;DHT22;1606;51.946;10.558;2023-07-22T02:05:00;17.10;99.90
3190;DHT22;1606;51.946;10.558;2023-07-22T02:07:28;17.10;99.90
3190;DHT22;1606;51.946;10.558;2023-07-22T02:09:56;17.10;99.90
3190;DHT22;1606;51.946;10.558;2023-07-22T02:12:23;17.10;99.90
3190;DHT22;1606;51.946;10.558;2023-07-22T02:14:51;17.10;99.90
3190;DHT22;1606;51.946;10.558;2023-07-22T02:17:21;17.10;99.90
3190;DHT22;1606;51.946;10.558;2023-07-22T02:19:50;17.20;99.90
3190;DHT22;1606;51.946;10.558;2023-07-22T02:22:18;17.10;99.90
3190;DHT22;1606;51.946;10.558;2023-07-22T02:24:45;17.10;99.90
3190;DHT22;1606;51.946;10.558;2023-07-22T02:27:13;17.20;99.90
3190;DHT22;1606;51.946;10.558;2023-07-22T02:29:41;17.20;99.90
3190;DHT22;1606;51.946;10.558;2023-07-22T02:32:09;17.20;99.90
3190;DHT22;1606;51.946;10.558;2023-07-22T02:34:38;17.20;99.90
3190;DHT22;1606;51.946;10.558;2023-07-22T02:37:06;17.10;99.90
3190;DHT22;1606;51.946;10.558;2023-07-22T02:39:34;17.10;99.90
3190;DHT22;1606;51.946;10.558;2023-07-22T02:42:02;17.10;99.90
3190;DHT22;1606;51.946;10.558;2023-07-22T02:44:30;17.20;99.90
3190;DHT22;1606;51.946;10.558;2023-07-22T02:46:58;17.20;99.90
3190;DHT22;1606;51.946;10.558;2023-07-22T02:49:26;17.30;99.90
3190;DHT22;1606;51.946;10.558;2023-07-22T02:51:55;17.30;99.90
3190;DHT22;1606;51.946;10.558;2023-07-22T02:54:23;17.30;99.90
3190;DHT22;1606;51.946;10.558;2023-07-22T02:56:51;17.10;99.90
3190;DHT22;1606;51.946;10.558;2023-07-22T02:59:19;17.00;99.90
3190;DHT22;1606;51.946;10.558;2023-07-22T03:01:46;17.00;99.90
3190;DHT22;1606;51.946;10.558;2023-07-22T03:04:14;17.00;99.90
3190;DHT22;1606;51.946;10.558;2023-07-22T03:06:42;16.90;99.90
3190;DHT22;1606;51.946;10.558;2023-07-22T03:09:12;16.90;99.90
3190;DHT22;1606;51.946;10.558;2023-07-22T03:11:40;16.80;99.90
3190;DHT22;1606;51.946;10.558;2023-07-22T03:14:08;16.70;99.90
3190;DHT22;1606;51.946;10.558;2023-07-22T03:16:36;16.80;99.90
3190;DHT22;1606;51.946;10.558;2023-07-22T03:19:04;16.70;99.90
3190;DHT22;1606;51.946;10.558;2023-07-22T03:21:32;16.80;99.90
3190;DHT22;1606;51.946;10.558;2023-07-22T03:24:00;16.80;99.90
3190;DHT22;1606;51.946;10.558;2023-07-22T03:26:29;16.60;99.90
3190;DHT22;1606;51.946;10.558;2023-07-22T03:28:57;16.50;99.90
3190;DHT22;1606;51.946;10.558;2023-07-22T03:31:25;16.50;99.90
3190;DHT22;1606;51.946;10.558;2023-07-22T03:33:53;16.60;99.90
3190;DHT22;1606;51.946;10.558;2023-07-22T03:36:21;16.60;99.90
3190;DHT22;1606;51.946;10.558;2023-07-22T03:38:50;16.70;99.90
3190;DHT22;1606;51.946;10.558;2023-07-22T03:41:18;16.80;99.90
3190;DHT22;1606;51.946;10.558;2023-07-22T03:43:47;16.90;99.90
3190;DHT22;1606;51.946;10.558;2023-07-22T03:46:15;17.10;99.90
3190;DHT22;1606;51.946;10.558;2023-07-22T03:48:42;17.20;99.90
3190;DHT22;1606;51.946;10.558;2023-07-22T03:51:10;17.20;99.90
3190;DHT22;1606;51.946;10.558;2023-07-22T03:53:46;17.20;99.90
3190;DHT22;1606;51.946;10.558;2023-07-22T03:56:14;17.40;99.90
3190;DHT22;1606;51.946;10.558;2023-07-22T03:58:42;17.30;99.90
3190;DHT22;1606;51.946;10.558;2023-07-22T04:01:12;17.30;99.90
3190;DHT22;1606;51.946;10.558;2023-07-22T04:03:40;17.30;99.90
3190;DHT22;1606;51.946;10.558;2023-07-22T04:06:08;17.20;99.90
3190;DHT22;1606;51.946;10.558;2023-07-22T04:08:36;16.90;99.90
3190;DHT22;1606;51.946;10.558;2023-07-22T04:11:04;16.90;99.90
3190;DHT22;1606;51.946;10.558;2023-07-22T04:13:32;16.90;99.90
3190;DHT22;1606;51.946;10.558;2023-07-22T04:15:59;16.70;99.90
3190;DHT22;1606;51.946;10.558;2023-07-22T04:18:29;16.80;99.90
3190;DHT22;1606;51.946;10.558;2023-07-22T04:21:01;16.90;99.90
3190;DHT22;1606;51.946;10.558;2023-07-22T04:23:29;17.00;99.90
3190;DHT22;1606;51.946;10.558;2023-07-22T04:26:02;17.10;99.90
3190;DHT22;1606;51.946;10.558;2023-07-22T04:28:31;17.20;99.90
3190;DHT22;1606;51.946;10.558;2023-07-22T04:30:59;17.10;99.90
3190;DHT22;1606;51.946;10.558;2023-07-22T04:33:29;17.20;99.90
3190;DHT22;1606;51.946;10.558;2023-07-22T04:35:59;17.20;99.90
3190;DHT22;1606;51.946;10.558;2023-07-22T04:38:27;17.30;99.90
3190;DHT22;1606;51.946;10.558;2023-07-22T04:40:55;17.20;99.90
3190;DHT22;1606;51.946;10.558;2023-07-22T04:43:23;17.40;99.90
3190;DHT22;1606;51.946;10.558;2023-07-22T04:45:51;17.60;99.90
3190;DHT22;1606;51.946;10.558;2023-07-22T04:48:20;17.70;99.90
3190;DHT22;1606;51.946;10.558;2023-07-22T04:50:51;17.60;99.90
3190;DHT22;1606;51.946;10.558;2023-07-22T04:53:19;17.70;99.90
3190;DHT22;1606;51.946;10.558;2023-07-22T04:55:47;17.60;99.90
3190;DHT22;1606;51.946;10.558;2023-07-22T04:58:14;17.60;99.90
3190;DHT22;1606;51.946;10.558;2023-07-22T05:00:42;17.60;99.90
3190;DHT22;1606;51.946;10.558;2023-07-22T05:03:10;17.80;99.90
3190;DHT22;1606;51.946;10.558;2023-07-22T05:05:38;17.80;99.90
3190;DHT22;1606;51.946;10.558;2023-07-22T05:08:07;17.80;99.90
3190;DHT22;1606;51.946;10.558;2023-07-22T05:10:36;17.90;99.90
3190;DHT22;1606;51.946;10.558;2023-07-22T05:13:05;18.00;99.90
3190;DHT22;1606;51.946;10.558;2023-07-22T05:15:33;17.70;99.90
3190;DHT22;1606;51.946;10.558;2023-07-22T05:18:01;17.80;99.90
3190;DHT22;1606;51.946;10.558;2023-07-22T05:20:29;17.60;99.90
3190;DHT22;1606;51.946;10.558;2023-07-22T05:22:57;17.50;99.90
3190;DHT22;1606;51.946;10.558;2023-07-22T05:25:27;17.30;99.90
3190;DHT22;1606;51.946;10.558;2023-07-22T05:27:54;17.50;99.90
3190;DHT22;1606;51.946;10.558;2023-07-22T05:30:22;17.70;99.90
3190;DHT22;1606;51.946;10.558;2023-07-22T05:33:01;17.40;99.90
3190;DHT22;1606;51.946;10.558;2023-07-22T05:35:29;17.50;99.90
3190;DHT22;1606;51.946;10.558;2023-07-22T05:37:56;17.60;99.90
3190;DHT22;1606;51.946;10.558;2023-07-22T05:40:24;17.50;99.90
3190;DHT22;1606;51.946;10.558;2023-07-22T05:42:54;17.40;99.90
3190;DHT22;1606;51.946;10.558;2023-07-22T05:45:21;17.40;99.90
3190;DHT22;1606;51.946;10.558;2023-07-22T05:47:49;17.20;99.90
3190;DHT22;1606;51.946;10.558;2023-07-22T05:50:17;17.20;99.90
3190;DHT22;1606;51.946;10.558;2023-07-22T05:52:45;17.10;99.90
3190;DHT22;1606;51.946;10.558;2023-07-22T05:55:14;17.20;99.90
3190;DHT22;1606;51.946;10.558;2023-07-22T05:57:42;17.40;99.90
3190;DHT22;1606;51.946;10.558;2023-07-22T06:00:12;17.40;99.90
3190;DHT22;1606;51.946;10.558;2023-07-22T06:02:41;17.50;99.90
3190;DHT22;1606;51.946;10.558;2023-07-22T06:05:09;17.60;99.90
3190;DHT22;1606;51.946;10.558;2023-07-22T06:07:37;17.70;99.90
3190;DHT22;1606;51.946;10.558;2023-07-22T06:10:05;17.70;99.90
3190;DHT22;1606;51.946;10.558;2023-07-22T06:12:35;17.70;99.90
3190;DHT22;1606;51.946;10.558;2023-07-22T06:15:03;17.90;99.90
3190;DHT22;1606;51.946;10.558;2023-07-22T06:17:34;17.80;99.90
3190;DHT22;1606;51.946;10.558;2023-07-22T06:20:02;18.00;99.90
3190;DHT22;1606;51.946;10.558;2023-07-22T06:22:30;18.20;99.90
3190;DHT22;1606;51.946;10.558;2023-07-22T06:25:01;18.20;99.90
3190;DHT22;1606;51.946;10.558;2023-07-22T06:27:29;18.30;99.90
3190;DHT22;1606;51.946;10.558;2023-07-22T06:29:57;18.10;99.90
3190;DHT22;1606;51.946;10.558;2023-07-22T06:32:25;18.10;99.90
3190;DHT22;1606;51.946;10.558;2023-07-22T06:34:58;18.30;99.90
3190;DHT22;1606;51.946;10.558;2023-07-22T06:37:26;18.40;99.90
3190;DHT22;1606;51.946;10.558;2023-07-22T06:39:54;18.50;99.90
3190;DHT22;1606;51.946;10.558;2023-07-22T06:42:24;18.80;99.90
3190;DHT22;1606;51.946;10.558;2023-07-22T06:44:53;18.70;99.90
3190;DHT22;1606;51.946;10.558;2023-07-22T06:47:20;18.70;99.90
3190;DHT22;1606;51.946;10.558;2023-07-22T06:49:48;18.50;99.90
3190;DHT22;1606;51.946;10.558;2023-07-22T06:52:18;18.20;99.90
3190;DHT22;1606;51.946;10.558;2023-07-22T06:54:46;18.50;99.90
3190;DHT22;1606;51.946;10.558;2023-07-22T06:57:14;18.80;99.90
3190;DHT22;1606;51.946;10.558;2023-07-22T06:59:42;18.90;99.90
3190;DHT22;1606;51.946;10.558;2023-07-22T07:02:10;19.00;99.90
3190;DHT22;1606;51.946;10.558;2023-07-22T07:04:38;19.00;99.90
3190;DHT22;1606;51.946;10.558;2023-07-22T07:07:06;19.10;99.90
3190;DHT22;1606;51.946;10.558;2023-07-22T07:09:36;19.30;99.90
3190;DHT22;1606;51.946;10.558;2023-07-22T07:12:04;19.30;99.90
3190;DHT22;1606;51.946;10.558;2023-07-22T07:14:33;19.50;99.90
3190;DHT22;1606;51.946;10.558;2023-07-22T07:17:02;19.50;99.90
3190;DHT22;1606;51.946;10.558;2023-07-22T07:19:29;19.30;99.90
3190;DHT22;1606;51.946;10.558;2023-07-22T07:21:58;19.20;99.90
3190;DHT22;1606;51.946;10.558;2023-07-22T07:24:27;19.10;99.90
3190;DHT22;1606;51.946;10.558;2023-07-22T07:26:57;19.10;99.90
3190;DHT22;1606;51.946;10.558;2023-07-22T07:29:26;19.00;99.90
3190;DHT22;1606;51.946;10.558;2023-07-22T07:32:14;18.90;99.90
3190;DHT22;1606;51.946;10.558;2023-07-22T07:34:41;18.90;99.90
3190;DHT22;1606;51.946;10.558;2023-07-22T07:37:09;18.70;99.90
3190;DHT22;1606;51.946;10.558;2023-07-22T07:39:37;18.80;99.90
3190;DHT22;1606;51.946;10.558;2023-07-22T07:42:07;19.00;99.90
3190;DHT22;1606;51.946;10.558;2023-07-22T07:44:35;19.10;99.90
3190;DHT22;1606;51.946;10.558;2023-07-22T07:47:03;19.20;99.90
3190;DHT22;1606;51.946;10.558;2023-07-22T07:49:31;19.20;99.90
3190;DHT22;1606;51.946;10.558;2023-07-22T07:51:59;19.30;99.90
3190;DHT22;1606;51.946;10.558;2023-07-22T07:54:28;19.40;99.90
3190;DHT22;1606;51.946;10.558;2023-07-22T07:56:59;19.30;99.90
3190;DHT22;1606;51.946;10.558;2023-07-22T07:59:28;19.40;99.90
3190;DHT22;1606;51.946;10.558;2023-07-22T08:01:56;19.40;99.90
3190;DHT22;1606;51.946;10.558;2023-07-22T08:04:24;19.20;99.90
3190;DHT22;1606;51.946;10.558;2023-07-22T08:06:52;18.90;99.90
3190;DHT22;1606;51.946;10.558;2023-07-22T08:09:19;19.30;99.90
3190;DHT22;1606;51.946;10.558;2023-07-22T08:11:48;19.40;99.90
3190;DHT22;1606;51.946;10.558;2023-07-22T08:14:16;19.50;99.90
3190;DHT22;1606;51.946;10.558;2023-07-22T08:16:46;19.70;99.90
3190;DHT22;1606;51.946;10.558;2023-07-22T08:19:14;19.60;99.90
3190;DHT22;1606;51.946;10.558;2023-07-22T08:21:42;19.60;99.90
3190;DHT22;1606;51.946;10.558;2023-07-22T08:24:10;19.80;99.90
3190;DHT22;1606;51.946;10.558;2023-07-22T08:26:37;19.90;99.90
3190;DHT22;1606;51.946;10.558;2023-07-22T08:29:05;19.80;99.40
3190;DHT22;1606;51.946;10.558;2023-07-22T08:31:33;19.70;99.90
3190;DHT22;1606;51.946;10.558;2023-07-22T08:34:04;19.70;99.80
3190;DHT22;1606;51.946;10.558;2023-07-22T08:36:32;19.70;99.90
3190;DHT22;1606;51.946;10.558;2023-07-22T08:39:00;19.60;99.90
3190;DHT22;1606;51.946;10.558;2023-07-22T08:41:28;19.60;99.90
3190;DHT22;1606;51.946;10.558;2023-07-22T08:43:58;19.50;99.90
3190;DHT22;1606;51.946;10.558;2023-07-22T08:46:28;19.20;99.90
3190;DHT22;1606;51.946;10.558;2023-07-22T08:48:59;19.20;99.90
3190;DHT22;1606;51.946;10.558;2023-07-22T08:51:29;19.40;99.90
3190;DHT22;1606;51.946;10.558;2023-07-22T08:53:59;19.40;99.90
3190;DHT22;1606;51.946;10.558;2023-07-22T08:56:38;19.30;99.90
3190;DHT22;1606;51.946;10.558;2023-07-22T08:59:06;19.50;99.90
3190;DHT22;1606;51.946;10.558;2023-07-22T09:01:34;19.50;99.90
3190;DHT22;1606;51.946;10.558;2023-07-22T09:04:04;19.60;99.90
3190;DHT22;1606;51.946;10.558;2023-07-22T09:06:33;19.70;99.90
3190;DHT22;1606;51.946;10.558;2023-07-22T09:09:01;19.40;99.90
3190;DHT22;1606;51.946;10.558;2023-07-22T09:11:34;19.60;99.90
3190;DHT22;1606;51.946;10.558;2023-07-22T09:14:03;19.60;99.90
3190;DHT22;1606;51.946;10.558;2023-07-22T09:16:32;19.70;99.80
3190;DHT22;1606;51.946;10.558;2023-07-22T09:19:03;19.60;99.90
3190;DHT22;1606;51.946;10.558;2023-07-22T09:21:33;19.90;99.90
3190;DHT22;1606;51.946;10.558;2023-07-22T09:24:19;20.20;99.40
3190;DHT22;1606;51.946;10.558;2023-07-22T09:26:48;20.60;99.60
3190;DHT22;1606;51.946;10.558;2023-07-22T09:29:16;20.60;99.30
3190;DHT22;1606;51.946;10.558;2023-07-22T09:31:54;20.60;99.50
3190;DHT22;1606;51.946;10.558;2023-07-22T09:34:22;20.80;99.20
3190;DHT22;1606;51.946;10.558;2023-07-22T09:36:54;21.40;98.60
3190;DHT22;1606;51.946;10.558;2023-07-22T09:39:23;22.00;97.20
3190;DHT22;1606;51.946;10.558;2023-07-22T09:41:51;22.20;97.00
3190;DHT22;1606;51.946;10.558;2023-07-22T09:44:20;22.10;96.10
3190;DHT22;1606;51.946;10.558;2023-07-22T09:46:49;22.20;95.40
3190;DHT22;1606;51.946;10.558;2023-07-22T09:49:18;22.00;94.60
3190;DHT22;1606;51.946;10.558;2023-07-22T09:51:46;21.80;94.50
3190;DHT22;1606;51.946;10.558;2023-07-22T09:54:29;21.40;95.60
3190;DHT22;1606;51.946;10.558;2023-07-22T09:56:58;21.40;96.10
3190;DHT22;1606;51.946;10.558;2023-07-22T09:59:29;21.60;95.00
3190;DHT22;1606;51.946;10.558;2023-07-22T10:01:58;21.90;95.50
3190;DHT22;1606;51.946;10.558;2023-07-22T10:04:32;21.90;94.90
3190;DHT22;1606;51.946;10.558;2023-07-22T10:07:02;21.80;95.00
3190;DHT22;1606;51.946;10.558;2023-07-22T10:09:34;22.00;95.30
3190;DHT22;1606;51.946;10.558;2023-07-22T10:12:05;22.00;94.20
3190;DHT22;1606;51.946;10.558;2023-07-22T10:14:34;21.90;94.20
3190;DHT22;1606;51.946;10.558;2023-07-22T10:17:05;21.90;94.50
3190;DHT22;1606;51.946;10.558;2023-07-22T10:19:34;22.20;94.90
3190;DHT22;1606;51.946;10.558;2023-07-22T10:22:02;22.10;93.50
3190;DHT22;1606;51.946;10.558;2023-07-22T10:24:32;22.00;94.50
3190;DHT22;1606;51.946;10.558;2023-07-22T10:27:00;21.80;94.40
3190;DHT22;1606;51.946;10.558;2023-07-22T10:29:29;21.60;95.30
3190;DHT22;1606;51.946;10.558;2023-07-22T10:31:57;21.70;94.30
3190;DHT22;1606;51.946;10.558;2023-07-22T10:34:26;21.80;94.70
3190;DHT22;1606;51.946;10.558;2023-07-22T10:36:57;21.80;94.40
3190;DHT22;1606;51.946;10.558;2023-07-22T10:39:26;21.90;93.40
3190;DHT22;1606;51.946;10.558;2023-07-22T10:42:03;21.80;93.60
3190;DHT22;1606;51.946;10.558;2023-07-22T10:44:32;21.90;95.00
3190;DHT22;1606;51.946;10.558;2023-07-22T10:47:00;22.20;94.60
3190;DHT22;1606;51.946;10.558;2023-07-22T10:49:43;22.40;94.50
3190;DHT22;1606;51.946;10.558;2023-07-22T10:52:11;22.20;93.00
3190;DHT22;1606;51.946;10.558;2023-07-22T10:54:40;22.30;94.00
3190;DHT22;1606;51.946;10.558;2023-07-22T10:57:25;22.30;93.40
3190;DHT22;1606;51.946;10.558;2023-07-22T10:59:55;22.40;92.60
3190;DHT22;1606;51.946;10.558;2023-07-22T11:02:28;22.40;93.10
3190;DHT22;1606;51.946;10.558;2023-07-22T11:04:57;22.40;93.20
3190;DHT22;1606;51.946;10.558;2023-07-22T11:07:31;22.40;93.80
3190;DHT22;1606;51.946;10.558;2023-07-22T11:10:11;22.40;92.80
3190;DHT22;1606;51.946;10.558;2023-07-22T11:12:42;22.30;93.80
3190;DHT22;1606;51.946;10.558;2023-07-22T11:15:10;22.60;93.30
3190;DHT22;1606;51.946;10.558;2023-07-22T11:17:38;22.80;93.20
3190;DHT22;1606;51.946;10.558;2023-07-22T11:20:07;22.80;93.20
3190;DHT22;1606;51.946;10.558;2023-07-22T11:22:35;22.70;92.70
3190;DHT22;1606;51.946;10.558;2023-07-22T11:25:07;22.40;91.60
3190;DHT22;1606;51.946;10.558;2023-07-22T11:27:35;22.20;92.40
3190;DHT22;1606;51.946;10.558;2023-07-22T11:30:05;22.00;92.50
3190;DHT22;1606;51.946;10.558;2023-07-22T11:32:34;21.80;93.10
3190;DHT22;1606;51.946;10.558;2023-07-22T11:35:02;21.90;93.60
3190;DHT22;1606;51.946;10.558;2023-07-22T11:37:30;21.90;93.70
3190;DHT22;1606;51.946;10.558;2023-07-22T11:40:00;22.10;93.70
3190;DHT22;1606;51.946;10.558;2023-07-22T11:42:29;22.40;93.10
3190;DHT22;1606;51.946;10.558;2023-07-22T11:44:57;22.70;92.50
3190;DHT22;1606;51.946;10.558;2023-07-22T11:47:30;22.90;93.20
3190;DHT22;1606;51.946;10.558;2023-07-22T11:49:58;23.40;92.90
3190;DHT22;1606;51.946;10.558;2023-07-22T11:52:26;23.50;92.00
3190;DHT22;1606;51.946;10.558;2023-07-22T11:55:01;23.40;92.90
3190;DHT22;1606;51.946;10.558;2023-07-22T11:57:30;23.40;91.50
3190;DHT22;1606;51.946;10.558;2023-07-22T11:59:58;23.50;91.10
3190;DHT22;1606;51.946;10.558;2023-07-22T12:02:27;23.60;91.40
3190;DHT22;1606;51.946;10.558;2023-07-22T12:04:58;23.60;90.70
3190;DHT22;1606;51.946;10.558;2023-07-22T12:07:28;23.40;92.70
3190;DHT22;1606;51.946;10.558;2023-07-22T12:09:58;23.30;91.90
3190;DHT22;1606;51.946;10.558;2023-07-22T12:12:33;23.20;91.90
3190;DHT22;1606;51.946;10.558;2023-07-22T12:15:02;23.20;92.40
3190;DHT22;1606;51.946;10.558;2023-07-22T12:17:44;22.90;92.00
3190;DHT22;1606;51.946;10.558;2023-07-22T12:20:14;22.80;93.20
3190;DHT22;1606;51.946;10.558;2023-07-22T12:22:42;22.80;92.30
3190;DHT22;1606;51.946;10.558;2023-07-22T12:25:10;22.80;91.00
3190;DHT22;1606;51.946;10.558;2023-07-22T12:27:38;22.70;91.00
3190;DHT22;1606;51.946;10.558;2023-07-22T12:30:07;22.80;91.50
3190;DHT22;1606;51.946;10.558;2023-07-22T12:32:35;22.90;90.60
3190;DHT22;1606;51.946;10.558;2023-07-22T12:35:04;23.20;90.80
3190;DHT22;1606;51.946;10.558;2023-07-22T12:37:33;23.40;88.40
3190;DHT22;1606;51.946;10.558;2023-07-22T12:40:02;23.60;90.10
3190;DHT22;1606;51.946;10.558;2023-07-22T12:42:34;23.70;90.20
3190;DHT22;1606;51.946;10.558;2023-07-22T12:45:03;23.70;91.30
3190;DHT22;1606;51.946;10.558;2023-07-22T12:47:31;23.80;90.70
3190;DHT22;1606;51.946;10.558;2023-07-22T12:49:59;23.90;87.40
3190;DHT22;1606;51.946;10.558;2023-07-22T12:52:27;24.10;86.60
3190;DHT22;1606;51.946;10.558;2023-07-22T12:54:56;24.20;84.40
3190;DHT22;1606;51.946;10.558;2023-07-22T12:57:24;24.00;84.70
3190;DHT22;1606;51.946;10.558;2023-07-22T12:59:52;23.80;84.30
3190;DHT22;1606;51.946;10.558;2023-07-22T13:02:20;23.60;86.20
3190;DHT22;1606;51.946;10.558;2023-07-22T13:04:49;23.50;87.20
3190;DHT22;1606;51.946;10.558;2023-07-22T13:07:17;23.50;87.20
3190;DHT22;1606;51.946;10.558;2023-07-22T13:09:45;23.50;87.00
3190;DHT22;1606;51.946;10.558;2023-07-22T13:12:16;23.60;89.40
3190;DHT22;1606;51.946;10.558;2023-07-22T13:14:45;23.90;87.40
3190;DHT22;1606;51.946;10.558;2023-07-22T13:17:13;23.90;87.10
3190;DHT22;1606;51.946;10.558;2023-07-22T13:19:41;23.90;87.40
3190;DHT22;1606;51.946;10.558;2023-07-22T13:22:09;23.90;86.60
3190;DHT22;1606;51.946;10.558;2023-07-22T13:24:37;23.60;88.00
3190;DHT22;1606;51.946;10.558;2023-07-22T13:27:06;23.70;88.50
3190;DHT22;1606;51.946;10.558;2023-07-22T13:29:36;23.70;87.10
3190;DHT22;1606;51.946;10.558;2023-07-22T13:32:04;23.80;87.00
3190;DHT22;1606;51.946;10.558;2023-07-22T13:34:32;23.80;85.80
3190;DHT22;1606;51.946;10.558;2023-07-22T13:37:00;23.90;87.80
3190;DHT22;1606;51.946;10.558;2023-07-22T13:39:29;24.00;89.00
3190;DHT22;1606;51.946;10.558;2023-07-22T13:41:57;24.20;87.90
3190;DHT22;1606;51.946;10.558;2023-07-22T13:44:25;24.20;86.80
3190;DHT22;1606;51.946;10.558;2023-07-22T13:46:54;24.50;85.90
3190;DHT22;1606;51.946;10.558;2023-07-22T13:49:22;24.70;86.20
3190;DHT22;1606;51.946;10.558;2023-07-22T13:51:50;24.70;85.90
3190;DHT22;1606;51.946;10.558;2023-07-22T13:54:18;24.70;85.80
3190;DHT22;1606;51.946;10.558;2023-07-22T13:56:47;24.50;87.60
3190;DHT22;1606;51.946;10.558;2023-07-22T13:59:15;24.20;85.00
3190;DHT22;1606;51.946;10.558;2023-07-22T14:01:42;24.10;84.40
3190;DHT22;1606;51.946;10.558;2023-07-22T14:04:12;24.20;84.60
3190;DHT22;1606;51.946;10.558;2023-07-22T14:06:40;24.40;83.10
3190;DHT22;1606;51.946;10.558;2023-07-22T14:09:08;24.40;80.40
3190;DHT22;1606;51.946;10.558;2023-07-22T14:11:36;24.10;82.10
3190;DHT22;1606;51.946;10.558;2023-07-22T14:14:06;24.20;81.70
3190;DHT22;1606;51.946;10.558;2023-07-22T14:16:33;24.10;81.00
3190;DHT22;1606;51.946;10.558;2023-07-22T14:19:01;24.10;80.00
3190;DHT22;1606;51.946;10.558;2023-07-22T14:21:31;24.10;80.60
3190;DHT22;1606;51.946;10.558;2023-07-22T14:23:59;24.00;81.60
3190;DHT22;1606;51.946;10.558;2023-07-22T14:26:26;24.00;81.90
3190;DHT22;1606;51.946;10.558;2023-07-22T14:28:54;24.10;81.90
3190;DHT22;1606;51.946;10.558;2023-07-22T14:31:22;24.30;82.80
3190;DHT22;1606;51.946;10.558;2023-07-22T14:33:51;24.30;80.60
3190;DHT22;1606;51.946;10.558;2023-07-22T14:36:18;24.50;81.20
3190;DHT22;1606;51.946;10.558;2023-07-22T14:38:48;24.60;79.20
3190;DHT22;1606;51.946;10.558;2023-07-22T14:41:16;24.40;80.20
3190;DHT22;1606;51.946;10.558;2023-07-22T14:43:44;24.50;81.70
3190;DHT22;1606;51.946;10.558;2023-07-22T14:46:12;24.70;81.20
3190;DHT22;1606;51.946;10.558;2023-07-22T14:48:40;24.90;79.20
3190;DHT22;1606;51.946;10.558;2023-07-22T14:51:09;24.90;77.90
3190;DHT22;1606;51.946;10.558;2023-07-22T14:53:37;24.90;77.00
3190;DHT22;1606;51.946;10.558;2023-07-22T14:56:06;25.00;77.70
3190;DHT22;1606;51.946;10.558;2023-07-22T14:58:34;24.90;80.10
3190;DHT22;1606;51.946;10.558;2023-07-22T15:01:02;25.10;77.40
3190;DHT22;1606;51.946;10.558;2023-07-22T15:03:30;25.20;79.20
3190;DHT22;1606;51.946;10.558;2023-07-22T15:05:58;25.40;78.20
3190;DHT22;1606;51.946;10.558;2023-07-22T15:08:26;25.60;77.20
3190;DHT22;1606;51.946;10.558;2023-07-22T15:10:54;25.50;76.50
3190;DHT22;1606;51.946;10.558;2023-07-22T15:13:23;25.50;75.60
3190;DHT22;1606;51.946;10.558;2023-07-22T15:15:53;25.50;76.20
3190;DHT22;1606;51.946;10.558;2023-07-22T15:18:22;25.70;73.40
3190;DHT22;1606;51.946;10.558;2023-07-22T15:20:51;26.00;74.80
3190;DHT22;1606;51.946;10.558;2023-07-22T15:23:19;25.70;70.90
3190;DHT22;1606;51.946;10.558;2023-07-22T15:25:50;25.70;71.60
3190;DHT22;1606;51.946;10.558;2023-07-22T15:28:18;25.80;73.30
3190;DHT22;1606;51.946;10.558;2023-07-22T15:30:48;25.90;72.90
3190;DHT22;1606;51.946;10.558;2023-07-22T15:33:16;26.00;75.60
3190;DHT22;1606;51.946;10.558;2023-07-22T15:35:44;26.30;72.00
3190;DHT22;1606;51.946;10.558;2023-07-22T15:38:12;26.00;72.70
3190;DHT22;1606;51.946;10.558;2023-07-22T15:40:40;26.00;71.40
3190;DHT22;1606;51.946;10.558;2023-07-22T15:43:08;26.00;72.60
3190;DHT22;1606;51.946;10.558;2023-07-22T15:45:42;25.90;70.70
3190;DHT22;1606;51.946;10.558;2023-07-22T15:48:13;26.00;70.90
3190;DHT22;1606;51.946;10.558;2023-07-22T15:50:42;26.00;69.10
3190;DHT22;1606;51.946;10.558;2023-07-22T15:53:15;25.90;69.10
3190;DHT22;1606;51.946;10.558;2023-07-22T15:55:49;26.10;69.60